Time;durP1;ratioP1;P1;durP2;ratioP2;P2;SDS_P1;SDS_P2;PMS_P1;PMS_P2;Temp;Humidity;BMP_temperature;BMP_pressure;BME280_temperature;BME280_humidity;BME280_pressure;Samples;Min_cycle;Max_cycle;Signal;HPM_P1;HPM_P2
2023/12/23 17:33:12;;;;;;;9.73;5.90;;;;;;;-144.57;100.00;62443.72;5025864;28;20152;-62
2023/12/23 17:35:39;;;;;;;13.45;6.00;;;;;;;-144.57;100.00;62443.72;5032433;28;20581;-62
2023/12/23 17:38:06;;;;;;;10.68;6.10;;;;;;;-144.57;100.00;62443.72;5027507;28;20128;-60
2023/12/23 17:40:32;;;;;;;9.75;6.45;;;;;;;-144.57;100.00;62443.72;5028464;28;20063;-61
2023/12/23 17:42:58;;;;;;;13.63;7.97;;;;;;;-144.57;100.00;62443.72;5032636;28;20033;-63
2023/12/23 17:45:23;;;;;;;13.65;7.65;;;;;;;-144.57;100.00;62443.72;5032495;28;20049;-60
2023/12/23 17:47:49;;;;;;;11.23;7.43;;;;;;;-144.57;100.00;62443.72;5032397;28;20033;-61
2023/12/23 17:50:17;;;;;;;13.93;7.28;;;;;;;-144.57;100.00;62443.72;5032036;28;20537;-60
2023/12/23 17:52:43;;;;;;;13.13;7.15;;;;;;;-144.57;100.00;62443.72;5014528;28;20136;-61
2023/12/23 17:55:09;;;;;;;13.13;7.30;;;;;;;-144.57;100.00;62443.72;5030864;28;20052;-60
2023/12/23 17:57:35;;;;;;;19.35;13.02;;;;;;;-144.57;100.00;62443.72;5032204;28;20499;-60
2023/12/23 18:00:02;;;;;;;14.30;8.20;;;;;;;-144.57;100.00;62443.72;5030991;28;20084;-62
2023/12/23 18:02:31;;;;;;;13.90;7.60;;;;;;;-144.57;100.00;62443.72;5030946;28;20037;-60
2023/12/23 18:04:57;;;;;;;11.45;7.50;;;;;;;-144.57;100.00;62443.72;5035832;28;20048;-61
2023/12/23 18:07:23;;;;;;;19.05;11.88;;;;;;;-144.57;100.00;62443.72;5051176;28;20128;-61
2023/12/23 18:09:52;;;;;;;12.38;8.00;;;;;;;-144.57;100.00;62443.72;5051028;28;20048;-62
2023/12/23 18:12:18;;;;;;;10.77;7.20;;;;;;;-144.57;100.00;62443.72;5051089;28;20064;-61
2023/12/23 18:14:44;;;;;;;14.10;7.10;;;;;;;-144.57;100.00;62443.72;5050766;28;20044;-61
2023/12/23 18:17:10;;;;;;;12.15;7.00;;;;;;;-144.57;100.00;62443.72;5052395;28;20076;-59
2023/12/23 18:19:36;;;;;;;12.75;6.72;;;;;;;-144.57;100.00;62443.72;5050767;28;20410;-61
2023/12/23 18:22:02;;;;;;;12.25;7.13;;;;;;;-144.57;100.00;62443.72;5047052;28;20440;-61
2023/12/23 18:24:28;;;;;;;15.95;8.68;;;;;;;-144.57;100.00;62443.72;5029960;28;20044;-59
2023/12/23 18:26:54;;;;;;;17.85;9.18;;;;;;;-144.57;100.00;62443.72;5030634;28;20538;-61
2023/12/23 18:29:20;;;;;;;14.27;8.57;;;;;;;-144.57;100.00;62443.72;4997637;28;20099;-61
2023/12/23 18:31:45;;;;;;;21.15;10.38;;;;;;;-144.57;100.00;62443.72;5032110;28;20430;-60
2023/12/23 18:34:11;;;;;;;14.20;7.35;;;;;;;-144.57;100.00;62443.72;5031491;28;20049;-61
2023/12/23 18:36:37;;;;;;;13.85;7.25;;;;;;;-144.57;100.00;62443.72;5031935;28;20045;-61
2023/12/23 18:39:03;;;;;;;11.25;7.05;;;;;;;-144.57;100.00;62443.72;5030158;28;20564;-59
2023/12/23 18:41:28;;;;;;;9.82;5.88;;;;;;;-144.57;100.00;62443.72;5031885;28;20045;-61
2023/12/23 18:43:54;;;;;;;15.80;5.63;;;;;;;-144.57;100.00;62443.72;5030654;28;20033;-60
2023/12/23 18:46:20;;;;;;;9.65;6.05;;;;;;;-144.57;100.00;62443.72;5030297;28;20103;-59
2023/12/23 18:48:49;;;;;;;11.52;6.35;;;;;;;-144.57;100.00;62443.72;5030199;28;20099;-60
2023/12/23 18:51:18;;;;;;;11.15;6.65;;;;;;;-144.57;100.00;62443.72;5031710;28;20537;-61
2023/12/23 18:53:49;;;;;;;12.88;7.28;;;;;;;-144.57;100.00;62443.72;5031377;28;20045;-60
2023/12/23 18:56:15;;;;;;;12.05;7.85;;;;;;;-144.57;100.00;62443.72;5026874;28;20503;-62
2023/12/23 18:58:41;;;;;;;19.10;9.48;;;;;;;-144.57;100.00;62443.72;5029154;28;20071;-61
2023/12/23 19:01:06;;;;;;;15.95;9.48;;;;;;;-144.57;100.00;62443.72;5029647;28;20076;-60
2023/12/23 19:03:32;;;;;;;15.13;9.10;;;;;;;-144.57;100.00;62443.72;5029832;28;20087;-59
2023/12/23 19:05:58;;;;;;;19.15;9.05;;;;;;;-144.57;100.00;62443.72;4997077;28;20059;-61
2023/12/23 19:08:25;;;;;;;14.95;8.13;;;;;;;-144.57;100.00;62443.72;5029183;28;20041;-62
2023/12/23 19:10:53;;;;;;;14.45;8.35;;;;;;;-144.57;100.00;62443.72;5029597;28;20141;-61
2023/12/23 19:13:19;;;;;;;18.85;9.85;;;;;;;-144.57;100.00;62443.72;5030671;28;20053;-62
2023/12/23 19:15:45;;;;;;;24.77;11.60;;;;;;;-144.57;100.00;62443.72;5027542;28;20049;-54
2023/12/23 19:18:11;;;;;;;19.08;8.52;;;;;;;-144.57;100.00;62443.72;5000867;28;20083;-61
2023/12/23 19:20:37;;;;;;;13.52;7.57;;;;;;;-144.57;100.00;62443.72;5035041;28;20049;-59
2023/12/23 19:23:07;;;;;;;13.68;8.00;;;;;;;-144.57;100.00;62443.72;5034123;28;20116;-60
2023/12/23 19:25:33;;;;;;;12.38;7.32;;;;;;;-144.57;100.00;62443.72;5016322;28;20491;-61
2023/12/23 19:27:59;;;;;;;14.65;7.38;;;;;;;-144.57;100.00;62443.72;5033294;28;20064;-60
2023/12/23 19:30:25;;;;;;;12.45;6.85;;;;;;;-144.57;100.00;62443.72;4984074;28;20515;-60
2023/12/23 19:32:51;;;;;;;9.93;6.78;;;;;;;-144.57;100.00;62443.72;5032817;28;20049;-61
2023/12/23 19:35:18;;;;;;;12.60;7.05;;;;;;;-144.57;100.00;62443.72;5034206;28;20103;-61
2023/12/23 19:37:44;;;;;;;9.77;6.40;;;;;;;-144.57;100.00;62443.72;5033354;28;20053;-60
2023/12/23 19:40:11;;;;;;;14.77;8.02;;;;;;;-144.57;100.00;62443.72;5034445;28;20034;-59
2023/12/23 19:42:37;;;;;;;12.68;7.35;;;;;;;-144.57;100.00;62443.72;5029483;28;20080;-62
2023/12/23 19:45:04;;;;;;;12.75;7.70;;;;;;;-144.57;100.00;62443.72;5032608;28;20041;-61
2023/12/23 19:47:34;;;;;;;17.13;7.90;;;;;;;-144.57;100.00;62443.72;5031399;28;20046;-60
2023/12/23 19:49:59;;;;;;;14.23;7.60;;;;;;;-144.57;100.00;62443.72;5036313;28;20103;-63
2023/12/23 19:52:26;;;;;;;16.77;10.00;;;;;;;-144.57;100.00;62443.72;5033535;28;20128;-61
2023/12/23 19:54:52;;;;;;;18.98;10.55;;;;;;;-144.57;100.00;62443.72;5034226;28;20064;-61
2023/12/23 19:57:18;;;;;;;15.57;8.35;;;;;;;-144.57;100.00;62443.72;5034062;28;20072;-63
2023/12/23 19:59:44;;;;;;;15.32;9.30;;;;;;;-144.57;100.00;62443.72;5032553;28;20075;-62
2023/12/23 20:02:10;;;;;;;19.75;10.30;;;;;;;-144.57;100.00;62443.72;5032372;28;20041;-61
2023/12/23 20:04:38;;;;;;;15.93;10.20;;;;;;;-144.57;100.00;62443.72;5033883;28;20049;-61
2023/12/23 20:07:04;;;;;;;14.70;9.02;;;;;;;-144.57;100.00;62443.72;5016821;28;20052;-61
2023/12/23 20:09:32;;;;;;;14.90;7.97;;;;;;;-144.57;100.00;62443.72;5034792;28;20050;-60
2023/12/23 20:11:58;;;;;;;15.50;7.60;;;;;;;-144.57;100.00;62443.72;5034480;28;20048;-61
2023/12/23 20:14:23;;;;;;;11.00;7.78;;;;;;;-144.57;100.00;62443.72;5034466;28;20041;-60
2023/12/23 20:16:49;;;;;;;13.20;7.95;;;;;;;-144.57;100.00;62443.72;5034608;28;20568;-63
2023/12/23 20:19:16;;;;;;;17.52;9.35;;;;;;;-144.57;100.00;62443.72;5032741;28;20041;-62
2023/12/23 20:21:43;;;;;;;12.70;7.55;;;;;;;-144.57;100.00;62443.72;5016606;28;20049;-63
2023/12/23 20:24:09;;;;;;;13.35;7.95;;;;;;;-144.57;100.00;62443.72;5016656;28;20495;-63
2023/12/23 20:26:35;;;;;;;14.05;8.60;;;;;;;-144.57;100.00;62443.72;5015827;28;20060;-64
2023/12/23 20:29:01;;;;;;;18.23;8.90;;;;;;;-144.57;100.00;62443.72;5032123;28;20049;-62
2023/12/23 20:31:26;;;;;;;17.48;8.95;;;;;;;-144.57;100.00;62443.72;5034312;28;20046;-62
2023/12/23 20:33:52;;;;;;;15.82;9.25;;;;;;;-144.57;100.00;62443.72;5033725;28;20578;-63
2023/12/23 20:36:18;;;;;;;16.05;8.85;;;;;;;-144.57;100.00;62443.72;5034331;28;20058;-61
2023/12/23 20:38:43;;;;;;;13.88;8.30;;;;;;;-144.57;100.00;62443.72;5032777;28;20033;-64
2023/12/23 20:41:09;;;;;;;13.68;8.48;;;;;;;-144.57;100.00;62443.72;5033856;28;20415;-64
2023/12/23 20:43:35;;;;;;;24.45;13.90;;;;;;;-144.57;100.00;62443.72;5016050;28;20095;-64
2023/12/23 20:46:01;;;;;;;19.08;11.02;;;;;;;-144.57;100.00;62443.72;5033937;28;20057;-63
2023/12/23 20:48:27;;;;;;;20.23;11.48;;;;;;;-144.57;100.00;62443.72;5034051;28;20038;-64
2023/12/23 20:50:53;;;;;;;13.13;8.38;;;;;;;-144.57;100.00;62443.72;5033800;28;20103;-64
2023/12/23 20:53:19;;;;;;;11.95;7.78;;;;;;;-144.57;100.00;62443.72;5016313;28;20045;-65
2023/12/23 20:55:49;;;;;;;13.23;7.93;;;;;;;-144.57;100.00;62443.72;5032307;28;20041;-65
2023/12/23 20:58:15;;;;;;;15.98;9.10;;;;;;;-144.57;100.00;62443.72;5016118;28;20103;-65
2023/12/23 21:00:40;;;;;;;21.52;12.13;;;;;;;-144.57;100.00;62443.72;5032447;28;20485;-64
2023/12/23 21:03:06;;;;;;;18.38;10.90;;;;;;;-144.57;100.00;62443.72;5033360;28;20561;-64
2023/12/23 21:05:32;;;;;;;27.02;13.80;;;;;;;-144.57;100.00;62443.72;5031992;28;20041;-64
2023/12/23 21:07:58;;;;;;;56.95;24.95;;;;;;;-144.57;100.00;62443.72;5033515;28;20096;-63
2023/12/23 21:10:24;;;;;;;103.38;39.75;;;;;;;-144.57;100.00;62443.72;5031997;28;20041;-64
2023/12/23 21:12:50;;;;;;;48.47;22.90;;;;;;;-144.57;100.00;62443.72;5033494;28;20047;-64
2023/12/23 21:15:16;;;;;;;31.50;16.63;;;;;;;-144.57;100.00;62443.72;5032346;28;20037;-63
2023/12/23 21:17:42;;;;;;;35.08;16.48;;;;;;;-144.57;100.00;62443.72;5015324;28;20068;-64
2023/12/23 21:20:08;;;;;;;83.20;35.58;;;;;;;-144.57;100.00;62443.72;5032118;28;20056;-63
2023/12/23 21:22:33;;;;;;;76.13;32.47;;;;;;;-144.57;100.00;62443.72;5033347;28;20518;-64
2023/12/23 21:24:59;;;;;;;74.75;30.75;;;;;;;-144.57;100.00;62443.72;5030714;28;20080;-64
2023/12/23 21:27:25;;;;;;;70.55;31.63;;;;;;;-144.57;100.00;62443.72;5033109;28;20037;-63
2023/12/23 21:29:51;;;;;;;55.78;25.90;;;;;;;-144.57;100.00;62443.72;5032989;28;20243;-62
2023/12/23 21:32:17;;;;;;;35.25;17.50;;;;;;;-144.57;100.00;62443.72;5033365;28;20087;-63
2023/12/23 21:34:43;;;;;;;17.92;9.93;;;;;;;-144.57;100.00;62443.72;5032877;28;20530;-63
2023/12/23 21:37:09;;;;;;;14.15;7.88;;;;;;;-144.57;100.00;62443.72;5033148;28;20045;-63
2023/12/23 21:39:36;;;;;;;15.57;7.35;;;;;;;-144.57;100.00;62443.72;5031291;28;20041;-61
2023/12/23 21:42:02;;;;;;;17.13;7.60;;;;;;;-144.57;100.00;62443.72;5032767;28;20399;-63
2023/12/23 21:44:27;;;;;;;17.95;9.05;;;;;;;-144.57;100.00;62443.72;5031249;28;20095;-63
2023/12/23 21:46:56;;;;;;;15.35;8.18;;;;;;;-144.57;100.00;62443.72;5032908;28;20445;-62
2023/12/23 21:49:22;;;;;;;16.85;7.60;;;;;;;-144.57;100.00;62443.72;5031421;28;20467;-62
2023/12/23 21:51:48;;;;;;;16.48;8.50;;;;;;;-144.57;100.00;62443.72;5032796;28;20136;-62
2023/12/23 21:54:14;;;;;;;12.45;7.28;;;;;;;-144.57;100.00;62443.72;5031703;28;20124;-63
2023/12/23 21:56:40;;;;;;;14.20;7.97;;;;;;;-144.57;100.00;62443.72;5014687;28;20099;-65
2023/12/23 21:59:06;;;;;;;11.50;7.65;;;;;;;-144.57;100.00;62443.72;5015007;28;20052;-65
2023/12/23 22:01:32;;;;;;;14.05;7.00;;;;;;;-144.57;100.00;62443.72;5032631;28;20403;-64
2023/12/23 22:04:02;;;;;;;12.60;6.40;;;;;;;-144.57;100.00;62443.72;5032168;28;20041;-65
2023/12/23 22:06:28;;;;;;;13.20;7.22;;;;;;;-144.57;100.00;62443.72;5031031;28;20044;-63
2023/12/23 22:08:54;;;;;;;12.07;6.70;;;;;;;-144.57;100.00;62443.72;5030833;28;20049;-63
2023/12/23 22:11:20;;;;;;;10.90;7.43;;;;;;;-144.57;100.00;62443.72;5014276;28;20557;-63
2023/12/23 22:13:47;;;;;;;14.18;6.90;;;;;;;-144.57;100.00;62443.72;5032238;28;20057;-63
2023/12/23 22:16:13;;;;;;;16.52;8.15;;;;;;;-144.57;100.00;62443.72;5032324;28;20046;-64
2023/12/23 22:18:39;;;;;;;15.07;8.10;;;;;;;-144.57;100.00;62443.72;5032265;28;20133;-62
2023/12/23 22:21:05;;;;;;;15.73;8.75;;;;;;;-144.57;100.00;62443.72;5030905;28;20128;-61
2023/12/23 22:23:31;;;;;;;18.25;9.50;;;;;;;-144.57;100.00;62443.72;5030942;28;20494;-61
2023/12/23 22:25:57;;;;;;;16.02;8.60;;;;;;;-144.57;100.00;62443.72;5014157;28;20099;-62
2023/12/23 22:28:23;;;;;;;15.30;9.60;;;;;;;-144.57;100.00;62443.72;5030838;28;20041;-63
2023/12/23 22:30:49;;;;;;;21.00;9.98;;;;;;;-144.57;100.00;62443.72;5032052;28;20038;-62
2023/12/23 22:33:15;;;;;;;16.67;9.95;;;;;;;-144.57;100.00;62443.72;5031790;28;20515;-62
2023/12/23 22:35:41;;;;;;;18.27;10.52;;;;;;;-144.57;100.00;62443.72;5031975;28;20090;-61
2023/12/23 22:38:07;;;;;;;19.33;9.90;;;;;;;-144.57;100.00;62443.72;5031835;28;20052;-62
2023/12/23 22:40:33;;;;;;;22.95;11.40;;;;;;;-144.57;100.00;62443.72;5031667;28;20087;-62
2023/12/23 22:42:59;;;;;;;18.40;10.00;;;;;;;-144.57;100.00;62443.72;5030629;28;20038;-64
2023/12/23 22:45:25;;;;;;;18.52;10.23;;;;;;;-144.57;100.00;62443.72;5030320;28;20056;-63
2023/12/23 22:47:52;;;;;;;18.17;10.65;;;;;;;-144.57;100.00;62443.72;5013884;28;20158;-63
2023/12/23 22:50:17;;;;;;;21.17;10.13;;;;;;;-144.57;100.00;62443.72;5013496;28;20507;-63
2023/12/23 22:52:43;;;;;;;20.05;10.38;;;;;;;-144.57;100.00;62443.72;5030560;28;20037;-63
2023/12/23 22:55:10;;;;;;;19.42;9.68;;;;;;;-144.57;100.00;62443.72;5031329;28;20561;-64
2023/12/23 22:57:35;;;;;;;21.08;10.20;;;;;;;-144.57;100.00;62443.72;5031631;28;20034;-63
2023/12/23 23:00:02;;;;;;;20.38;10.93;;;;;;;-144.57;100.00;62443.72;5031291;28;20083;-63
2023/12/23 23:02:30;;;;;;;23.45;13.88;;;;;;;-144.57;100.00;62443.72;5031346;28;20053;-63
2023/12/23 23:04:56;;;;;;;25.75;14.50;;;;;;;-144.57;100.00;62443.72;5029875;28;20092;-65
2023/12/23 23:07:22;;;;;;;31.20;16.40;;;;;;;-144.57;100.00;62443.72;5030256;28;20049;-64
2023/12/23 23:09:48;;;;;;;29.23;15.38;;;;;;;-144.57;100.00;62443.72;5031505;28;20495;-63
2023/12/23 23:12:13;;;;;;;22.38;12.70;;;;;;;-144.57;100.00;62443.72;5031251;28;20049;-64
2023/12/23 23:14:40;;;;;;;28.75;13.82;;;;;;;-144.57;100.00;62443.72;5031240;28;20045;-63
2023/12/23 23:17:05;;;;;;;28.55;15.20;;;;;;;-144.57;100.00;62443.72;5029972;28;20050;-64
2023/12/23 23:19:33;;;;;;;28.40;13.45;;;;;;;-144.57;100.00;62443.72;5031495;28;20041;-64
2023/12/23 23:21:59;;;;;;;23.35;12.43;;;;;;;-144.57;100.00;62443.72;5030837;28;20053;-64
2023/12/23 23:24:25;;;;;;;26.05;11.77;;;;;;;-144.57;100.00;62443.72;5030250;28;20038;-64
2023/12/23 23:26:51;;;;;;;19.95;11.38;;;;;;;-144.57;100.00;62443.72;5031026;28;20045;-63
2023/12/23 23:29:17;;;;;;;21.15;11.30;;;;;;;-144.57;100.00;62443.72;5030094;28;20334;-64
2023/12/23 23:31:43;;;;;;;21.02;10.02;;;;;;;-144.57;100.00;62443.72;5013871;28;20044;-63
2023/12/23 23:34:09;;;;;;;16.75;9.45;;;;;;;-144.57;100.00;62443.72;5031070;28;20426;-62
2023/12/23 23:36:35;;;;;;;16.58;8.98;;;;;;;-144.57;100.00;62443.72;5031434;28;20042;-63
2023/12/23 23:39:01;;;;;;;17.17;9.50;;;;;;;-144.57;100.00;62443.72;5013596;28;20107;-63
2023/12/23 23:41:27;;;;;;;18.52;9.73;;;;;;;-144.57;100.00;62443.72;5031442;28;20053;-64
2023/12/23 23:43:53;;;;;;;18.27;9.68;;;;;;;-144.57;100.00;62443.72;5013318;28;20533;-65
2023/12/23 23:46:20;;;;;;;17.20;9.50;;;;;;;-144.57;100.00;62443.72;5031190;28;20099;-64
2023/12/23 23:48:46;;;;;;;18.55;10.63;;;;;;;-144.57;100.00;62443.72;5030892;28;20042;-63
2023/12/23 23:51:21;;;;;;;18.58;11.63;;;;;;;-144.57;100.00;62443.72;5031269;28;20124;-63
2023/12/23 23:53:48;;;;;;;21.63;11.98;;;;;;;-144.57;100.00;62443.72;5031263;28;20037;-63
2023/12/23 23:56:15;;;;;;;22.60;12.70;;;;;;;-144.57;100.00;62443.72;5029679;28;20042;-62
2023/12/23 23:58:45;;;;;;;23.58;12.07;;;;;;;-144.57;100.00;62443.72;5031121;28;20103;-62
